sensor_id;sensor_type;location;lat;lon;timestamp;P1;durP1;ratioP1;P2;durP2;ratioP2
71763;SDS011;59602;52.142;5.408;2022-09-12T00:00:06;8.87;;;5.50;;
71763;SDS011;59602;52.142;5.408;2022-09-12T00:02:33;9.32;;;5.38;;
71763;SDS011;59602;52.142;5.408;2022-09-12T00:05:00;8.77;;;5.57;;
71763;SDS011;59602;52.142;5.408;2022-09-12T00:07:26;8.43;;;5.45;;
71763;SDS011;59602;52.142;5.408;2022-09-12T00:09:53;8.30;;;5.47;;
71763;SDS011;59602;52.142;5.408;2022-09-12T00:12:19;9.17;;;5.67;;
71763;SDS011;59602;52.142;5.408;2022-09-12T00:14:46;8.25;;;6.00;;
71763;SDS011;59602;52.142;5.408;2022-09-12T00:17:12;7.97;;;5.30;;
71763;SDS011;59602;52.142;5.408;2022-09-12T00:19:39;6.40;;;4.50;;
71763;SDS011;59602;52.142;5.408;2022-09-12T00:22:06;7.38;;;4.35;;
71763;SDS011;59602;52.142;5.408;2022-09-12T00:24:32;5.43;;;3.80;;
71763;SDS011;59602;52.142;5.408;2022-09-12T00:26:59;6.22;;;4.60;;
71763;SDS011;59602;52.142;5.408;2022-09-12T00:29:26;6.47;;;4.53;;
71763;SDS011;59602;52.142;5.408;2022-09-12T00:31:52;6.45;;;4.07;;
71763;SDS011;59602;52.142;5.408;2022-09-12T00:34:19;6.82;;;4.18;;
71763;SDS011;59602;52.142;5.408;2022-09-12T00:36:45;5.27;;;3.63;;
71763;SDS011;59602;52.142;5.408;2022-09-12T00:39:13;8.27;;;4.50;;
71763;SDS011;59602;52.142;5.408;2022-09-12T00:41:42;6.32;;;4.22;;
71763;SDS011;59602;52.142;5.408;2022-09-12T00:46:40;5.40;;;3.95;;
71763;SDS011;59602;52.142;5.408;2022-09-12T00:51:42;6.32;;;4.22;;
71763;SDS011;59602;52.142;5.408;2022-09-12T00:54:13;5.57;;;4.00;;
71763;SDS011;59602;52.142;5.408;2022-09-12T00:56:44;9.20;;;4.65;;
71763;SDS011;59602;52.142;5.408;2022-09-12T00:59:16;7.55;;;4.30;;
71763;SDS011;59602;52.142;5.408;2022-09-12T01:01:47;6.60;;;4.60;;
71763;SDS011;59602;52.142;5.408;2022-09-12T01:04:17;6.40;;;4.63;;
71763;SDS011;59602;52.142;5.408;2022-09-12T01:06:47;7.25;;;4.90;;
71763;SDS011;59602;52.142;5.408;2022-09-12T01:09:18;10.77;;;4.93;;
71763;SDS011;59602;52.142;5.408;2022-09-12T01:11:47;7.82;;;5.03;;
71763;SDS011;59602;52.142;5.408;2022-09-12T01:14:16;7.90;;;5.37;;
71763;SDS011;59602;52.142;5.408;2022-09-12T01:16:43;7.25;;;4.63;;
71763;SDS011;59602;52.142;5.408;2022-09-12T01:19:24;7.10;;;4.90;;
71763;SDS011;59602;52.142;5.408;2022-09-12T01:24:41;8.32;;;4.82;;
71763;SDS011;59602;52.142;5.408;2022-09-12T01:30:19;7.47;;;4.60;;
71763;SDS011;59602;52.142;5.408;2022-09-12T01:35:37;7.47;;;5.15;;
71763;SDS011;59602;52.142;5.408;2022-09-12T01:38:24;7.78;;;5.30;;
71763;SDS011;59602;52.142;5.408;2022-09-12T01:41:00;6.90;;;4.50;;
71763;SDS011;59602;52.142;5.408;2022-09-12T01:43:35;9.10;;;5.05;;
71763;SDS011;59602;52.142;5.408;2022-09-12T01:46:23;8.75;;;4.85;;
71763;SDS011;59602;52.142;5.408;2022-09-12T01:54:48;6.43;;;4.13;;
71763;SDS011;59602;52.142;5.408;2022-09-12T01:57:21;8.68;;;4.60;;
71763;SDS011;59602;52.142;5.408;2022-09-12T02:00:05;8.98;;;4.97;;
71763;SDS011;59602;52.142;5.408;2022-09-12T02:05:05;7.60;;;4.57;;
71763;SDS011;59602;52.142;5.408;2022-09-12T02:07:37;7.93;;;4.67;;
71763;SDS011;59602;52.142;5.408;2022-09-12T02:12:48;6.35;;;4.20;;
71763;SDS011;59602;52.142;5.408;2022-09-12T02:15:17;8.70;;;4.72;;
71763;SDS011;59602;52.142;5.408;2022-09-12T02:17:49;8.23;;;4.60;;
71763;SDS011;59602;52.142;5.408;2022-09-12T02:23:10;7.70;;;4.20;;
71763;SDS011;59602;52.142;5.408;2022-09-12T02:25:41;8.15;;;4.00;;
71763;SDS011;59602;52.142;5.408;2022-09-12T02:28:17;6.03;;;3.90;;
71763;SDS011;59602;52.142;5.408;2022-09-12T02:31:00;7.55;;;4.05;;
71763;SDS011;59602;52.142;5.408;2022-09-12T02:36:17;7.13;;;4.35;;
71763;SDS011;59602;52.142;5.408;2022-09-12T02:38:53;8.70;;;5.15;;
71763;SDS011;59602;52.142;5.408;2022-09-12T02:41:20;7.55;;;4.15;;
71763;SDS011;59602;52.142;5.408;2022-09-12T02:43:48;6.43;;;4.13;;
71763;SDS011;59602;52.142;5.408;2022-09-12T02:46:19;5.57;;;3.87;;
71763;SDS011;59602;52.142;5.408;2022-09-12T02:48:48;6.40;;;4.45;;
71763;SDS011;59602;52.142;5.408;2022-09-12T02:51:15;6.57;;;4.05;;
71763;SDS011;59602;52.142;5.408;2022-09-12T02:53:48;8.50;;;4.45;;
71763;SDS011;59602;52.142;5.408;2022-09-12T02:56:17;8.50;;;4.10;;
71763;SDS011;59602;52.142;5.408;2022-09-12T02:58:49;6.70;;;4.17;;
71763;SDS011;59602;52.142;5.408;2022-09-12T03:01:21;7.47;;;4.70;;
71763;SDS011;59602;52.142;5.408;2022-09-12T03:07:25;8.85;;;4.90;;
71763;SDS011;59602;52.142;5.408;2022-09-12T03:09:57;7.97;;;4.63;;
71763;SDS011;59602;52.142;5.408;2022-09-12T03:18:23;7.38;;;4.50;;
71763;SDS011;59602;52.142;5.408;2022-09-12T03:21:08;6.95;;;4.60;;
71763;SDS011;59602;52.142;5.408;2022-09-12T03:23:50;9.40;;;5.30;;
71763;SDS011;59602;52.142;5.408;2022-09-12T03:26:31;8.33;;;4.67;;
71763;SDS011;59602;52.142;5.408;2022-09-12T03:29:00;7.63;;;4.85;;
71763;SDS011;59602;52.142;5.408;2022-09-12T03:31:31;9.65;;;5.68;;
71763;SDS011;59602;52.142;5.408;2022-09-12T03:33:58;9.38;;;5.38;;
71763;SDS011;59602;52.142;5.408;2022-09-12T03:36:26;10.93;;;5.80;;
71763;SDS011;59602;52.142;5.408;2022-09-12T03:38:54;9.03;;;5.77;;
71763;SDS011;59602;52.142;5.408;2022-09-12T03:41:21;10.20;;;5.90;;
71763;SDS011;59602;52.142;5.408;2022-09-12T03:43:48;8.52;;;5.30;;
71763;SDS011;59602;52.142;5.408;2022-09-12T03:46:15;10.02;;;5.75;;
71763;SDS011;59602;52.142;5.408;2022-09-12T03:48:41;8.82;;;5.45;;
71763;SDS011;59602;52.142;5.408;2022-09-12T03:51:08;11.43;;;6.40;;
71763;SDS011;59602;52.142;5.408;2022-09-12T03:53:35;9.73;;;5.38;;
71763;SDS011;59602;52.142;5.408;2022-09-12T03:56:24;8.93;;;5.45;;
71763;SDS011;59602;52.142;5.408;2022-09-12T03:58:51;11.57;;;6.40;;
71763;SDS011;59602;52.142;5.408;2022-09-12T04:01:18;10.40;;;5.82;;
71763;SDS011;59602;52.142;5.408;2022-09-12T04:03:47;10.93;;;5.33;;
71763;SDS011;59602;52.142;5.408;2022-09-12T04:06:19;9.23;;;5.25;;
71763;SDS011;59602;52.142;5.408;2022-09-12T04:08:48;7.93;;;4.60;;
71763;SDS011;59602;52.142;5.408;2022-09-12T04:11:17;8.15;;;5.20;;
71763;SDS011;59602;52.142;5.408;2022-09-12T04:13:47;7.18;;;4.72;;
71763;SDS011;59602;52.142;5.408;2022-09-12T04:16:14;13.07;;;5.70;;
71763;SDS011;59602;52.142;5.408;2022-09-12T04:18:42;10.43;;;5.47;;
71763;SDS011;59602;52.142;5.408;2022-09-12T04:21:10;8.23;;;4.88;;
71763;SDS011;59602;52.142;5.408;2022-09-12T04:23:40;9.77;;;5.55;;
71763;SDS011;59602;52.142;5.408;2022-09-12T04:26:08;9.07;;;5.47;;
71763;SDS011;59602;52.142;5.408;2022-09-12T04:28:38;8.67;;;4.80;;
71763;SDS011;59602;52.142;5.408;2022-09-12T04:31:07;8.70;;;5.03;;
71763;SDS011;59602;52.142;5.408;2022-09-12T04:33:39;11.32;;;5.93;;
71763;SDS011;59602;52.142;5.408;2022-09-12T04:36:06;12.45;;;6.78;;
71763;SDS011;59602;52.142;5.408;2022-09-12T04:38:36;11.07;;;5.95;;
71763;SDS011;59602;52.142;5.408;2022-09-12T04:41:10;11.90;;;6.30;;
71763;SDS011;59602;52.142;5.408;2022-09-12T04:43:39;12.45;;;6.80;;
71763;SDS011;59602;52.142;5.408;2022-09-12T04:46:06;12.70;;;6.95;;
71763;SDS011;59602;52.142;5.408;2022-09-12T04:48:34;13.15;;;6.68;;
71763;SDS011;59602;52.142;5.408;2022-09-12T04:53:34;11.27;;;6.00;;
71763;SDS011;59602;52.142;5.408;2022-09-12T04:56:03;11.48;;;6.85;;
71763;SDS011;59602;52.142;5.408;2022-09-12T04:58:32;11.55;;;6.63;;
71763;SDS011;59602;52.142;5.408;2022-09-12T05:03:46;11.23;;;6.45;;
71763;SDS011;59602;52.142;5.408;2022-09-12T05:06:15;10.63;;;6.40;;
71763;SDS011;59602;52.142;5.408;2022-09-12T05:08:44;11.82;;;6.78;;
71763;SDS011;59602;52.142;5.408;2022-09-12T05:11:13;11.57;;;6.70;;
71763;SDS011;59602;52.142;5.408;2022-09-12T05:13:41;12.10;;;6.78;;
71763;SDS011;59602;52.142;5.408;2022-09-12T05:16:09;11.85;;;7.50;;
71763;SDS011;59602;52.142;5.408;2022-09-12T05:18:37;12.80;;;6.57;;
71763;SDS011;59602;52.142;5.408;2022-09-12T05:21:05;13.75;;;7.22;;
71763;SDS011;59602;52.142;5.408;2022-09-12T05:23:34;15.70;;;7.30;;
71763;SDS011;59602;52.142;5.408;2022-09-12T05:26:02;14.85;;;7.70;;
71763;SDS011;59602;52.142;5.408;2022-09-12T05:28:30;11.98;;;6.63;;
71763;SDS011;59602;52.142;5.408;2022-09-12T05:31:00;13.70;;;7.03;;
71763;SDS011;59602;52.142;5.408;2022-09-12T05:33:43;11.82;;;6.93;;
71763;SDS011;59602;52.142;5.408;2022-09-12T05:36:36;15.75;;;7.35;;
71763;SDS011;59602;52.142;5.408;2022-09-12T05:39:03;16.33;;;7.90;;
71763;SDS011;59602;52.142;5.408;2022-09-12T05:41:31;15.38;;;7.95;;
71763;SDS011;59602;52.142;5.408;2022-09-12T05:44:00;16.40;;;7.60;;
71763;SDS011;59602;52.142;5.408;2022-09-12T05:46:35;14.30;;;7.90;;
71763;SDS011;59602;52.142;5.408;2022-09-12T05:49:13;13.73;;;7.65;;
71763;SDS011;59602;52.142;5.408;2022-09-12T05:52:30;16.45;;;7.75;;
71763;SDS011;59602;52.142;5.408;2022-09-12T05:55:15;19.58;;;8.90;;
71763;SDS011;59602;52.142;5.408;2022-09-12T05:57:44;18.20;;;9.07;;
71763;SDS011;59602;52.142;5.408;2022-09-12T06:00:49;14.55;;;7.50;;
71763;SDS011;59602;52.142;5.408;2022-09-12T06:07:19;15.35;;;7.97;;
71763;SDS011;59602;52.142;5.408;2022-09-12T06:16:24;15.48;;;8.15;;
71763;SDS011;59602;52.142;5.408;2022-09-12T06:20:06;14.00;;;7.68;;
71763;SDS011;59602;52.142;5.408;2022-09-12T06:23:01;15.30;;;8.13;;
71763;SDS011;59602;52.142;5.408;2022-09-12T06:26:05;16.98;;;8.82;;
71763;SDS011;59602;52.142;5.408;2022-09-12T06:28:47;16.27;;;9.13;;
71763;SDS011;59602;52.142;5.408;2022-09-12T06:31:46;16.67;;;8.65;;
71763;SDS011;59602;52.142;5.408;2022-09-12T06:34:13;15.77;;;9.20;;
71763;SDS011;59602;52.142;5.408;2022-09-12T06:36:58;16.00;;;8.80;;
71763;SDS011;59602;52.142;5.408;2022-09-12T06:39:45;18.05;;;9.13;;
71763;SDS011;59602;52.142;5.408;2022-09-12T06:42:14;14.97;;;8.27;;
71763;SDS011;59602;52.142;5.408;2022-09-12T06:44:59;17.65;;;9.57;;
71763;SDS011;59602;52.142;5.408;2022-09-12T06:47:25;16.55;;;8.82;;
71763;SDS011;59602;52.142;5.408;2022-09-12T06:49:56;17.42;;;8.40;;
71763;SDS011;59602;52.142;5.408;2022-09-12T06:52:43;17.55;;;8.90;;
71763;SDS011;59602;52.142;5.408;2022-09-12T06:55:51;19.27;;;9.90;;
71763;SDS011;59602;52.142;5.408;2022-09-12T07:16:51;27.33;;;12.68;;
71763;SDS011;59602;52.142;5.408;2022-09-12T07:19:17;28.88;;;13.82;;
71763;SDS011;59602;52.142;5.408;2022-09-12T07:21:44;29.65;;;14.35;;
71763;SDS011;59602;52.142;5.408;2022-09-12T07:24:10;30.43;;;14.47;;
71763;SDS011;59602;52.142;5.408;2022-09-12T07:26:37;27.23;;;13.73;;
71763;SDS011;59602;52.142;5.408;2022-09-12T07:29:06;33.22;;;15.27;;
71763;SDS011;59602;52.142;5.408;2022-09-12T07:31:59;32.17;;;14.93;;
71763;SDS011;59602;52.142;5.408;2022-09-12T07:34:27;36.63;;;17.00;;
71763;SDS011;59602;52.142;5.408;2022-09-12T07:36:53;32.90;;;15.73;;
71763;SDS011;59602;52.142;5.408;2022-09-12T07:39:20;36.22;;;17.55;;
71763;SDS011;59602;52.142;5.408;2022-09-12T07:41:46;38.35;;;17.33;;
71763;SDS011;59602;52.142;5.408;2022-09-12T07:44:13;36.22;;;16.88;;
71763;SDS011;59602;52.142;5.408;2022-09-12T07:46:39;37.55;;;17.60;;
71763;SDS011;59602;52.142;5.408;2022-09-12T07:49:06;38.20;;;17.20;;
71763;SDS011;59602;52.142;5.408;2022-09-12T07:51:33;35.33;;;16.77;;
71763;SDS011;59602;52.142;5.408;2022-09-12T07:54:00;35.78;;;17.88;;
71763;SDS011;59602;52.142;5.408;2022-09-12T07:56:26;35.38;;;16.58;;
71763;SDS011;59602;52.142;5.408;2022-09-12T07:58:57;35.55;;;16.85;;
71763;SDS011;59602;52.142;5.408;2022-09-12T08:01:24;35.13;;;16.23;;
71763;SDS011;59602;52.142;5.408;2022-09-12T08:03:52;36.92;;;16.52;;
71763;SDS011;59602;52.142;5.408;2022-09-12T08:06:22;32.78;;;16.65;;
71763;SDS011;59602;52.142;5.408;2022-09-12T08:08:50;38.92;;;18.85;;
71763;SDS011;59602;52.142;5.408;2022-09-12T08:11:18;31.15;;;16.02;;
71763;SDS011;59602;52.142;5.408;2022-09-12T08:13:46;34.80;;;17.67;;
71763;SDS011;59602;52.142;5.408;2022-09-12T08:16:20;33.38;;;15.52;;
71763;SDS011;59602;52.142;5.408;2022-09-12T08:18:48;34.22;;;16.58;;
71763;SDS011;59602;52.142;5.408;2022-09-12T08:21:17;30.45;;;15.60;;
71763;SDS011;59602;52.142;5.408;2022-09-12T08:23:46;29.98;;;15.07;;
71763;SDS011;59602;52.142;5.408;2022-09-12T08:26:17;29.50;;;15.33;;
71763;SDS011;59602;52.142;5.408;2022-09-12T08:28:44;33.03;;;15.98;;
71763;SDS011;59602;52.142;5.408;2022-09-12T08:31:12;33.20;;;13.77;;
71763;SDS011;59602;52.142;5.408;2022-09-12T08:33:40;28.35;;;13.75;;
71763;SDS011;59602;52.142;5.408;2022-09-12T08:36:09;27.17;;;14.43;;
71763;SDS011;59602;52.142;5.408;2022-09-12T08:38:38;28.93;;;14.87;;
71763;SDS011;59602;52.142;5.408;2022-09-12T08:46:25;28.98;;;14.13;;
71763;SDS011;59602;52.142;5.408;2022-09-12T08:49:01;26.63;;;13.80;;
71763;SDS011;59602;52.142;5.408;2022-09-12T08:51:30;26.87;;;14.00;;
71763;SDS011;59602;52.142;5.408;2022-09-12T08:53:59;25.88;;;13.45;;
71763;SDS011;59602;52.142;5.408;2022-09-12T08:56:30;23.58;;;12.55;;
71763;SDS011;59602;52.142;5.408;2022-09-12T08:59:01;25.13;;;13.32;;
71763;SDS011;59602;52.142;5.408;2022-09-12T09:04:01;23.43;;;11.50;;
71763;SDS011;59602;52.142;5.408;2022-09-12T09:06:54;22.83;;;11.95;;
71763;SDS011;59602;52.142;5.408;2022-09-12T09:22:10;26.08;;;12.52;;
71763;SDS011;59602;52.142;5.408;2022-09-12T09:24:43;30.40;;;16.27;;
71763;SDS011;59602;52.142;5.408;2022-09-12T09:30:21;24.65;;;13.75;;
71763;SDS011;59602;52.142;5.408;2022-09-12T09:32:50;23.47;;;12.03;;
71763;SDS011;59602;52.142;5.408;2022-09-12T09:36:15;20.50;;;11.48;;
71763;SDS011;59602;52.142;5.408;2022-09-12T09:39:36;20.92;;;11.32;;
71763;SDS011;59602;52.142;5.408;2022-09-12T09:42:09;23.95;;;13.07;;
71763;SDS011;59602;52.142;5.408;2022-09-12T09:44:48;17.92;;;11.05;;
71763;SDS011;59602;52.142;5.408;2022-09-12T09:47:18;18.13;;;11.53;;
71763;SDS011;59602;52.142;5.408;2022-09-12T09:49:45;21.80;;;11.00;;
71763;SDS011;59602;52.142;5.408;2022-09-12T09:52:13;18.02;;;10.55;;
71763;SDS011;59602;52.142;5.408;2022-09-12T09:55:11;17.92;;;9.93;;
71763;SDS011;59602;52.142;5.408;2022-09-12T09:57:46;17.67;;;10.18;;
71763;SDS011;59602;52.142;5.408;2022-09-12T10:00:56;19.20;;;9.73;;
71763;SDS011;59602;52.142;5.408;2022-09-12T10:03:28;18.70;;;10.15;;
71763;SDS011;59602;52.142;5.408;2022-09-12T10:10:04;22.30;;;11.30;;
71763;SDS011;59602;52.142;5.408;2022-09-12T10:12:40;20.00;;;10.40;;
71763;SDS011;59602;52.142;5.408;2022-09-12T10:15:18;15.93;;;10.40;;
71763;SDS011;59602;52.142;5.408;2022-09-12T10:17:53;18.45;;;10.45;;
71763;SDS011;59602;52.142;5.408;2022-09-12T10:23:03;19.10;;;9.38;;
71763;SDS011;59602;52.142;5.408;2022-09-12T10:26:14;14.80;;;8.60;;
71763;SDS011;59602;52.142;5.408;2022-09-12T10:28:50;19.97;;;10.60;;
71763;SDS011;59602;52.142;5.408;2022-09-12T10:31:23;15.13;;;9.63;;
71763;SDS011;59602;52.142;5.408;2022-09-12T10:33:55;17.45;;;9.93;;
71763;SDS011;59602;52.142;5.408;2022-09-12T10:36:50;14.85;;;8.68;;
71763;SDS011;59602;52.142;5.408;2022-09-12T10:43:26;15.67;;;7.87;;
71763;SDS011;59602;52.142;5.408;2022-09-12T10:46:20;15.73;;;8.48;;
71763;SDS011;59602;52.142;5.408;2022-09-12T10:49:43;18.85;;;8.68;;
71763;SDS011;59602;52.142;5.408;2022-09-12T10:52:30;15.07;;;8.45;;
71763;SDS011;59602;52.142;5.408;2022-09-12T11:03:14;11.63;;;6.68;;
71763;SDS011;59602;52.142;5.408;2022-09-12T11:06:09;10.43;;;6.63;;
71763;SDS011;59602;52.142;5.408;2022-09-12T11:14:44;9.27;;;5.77;;
71763;SDS011;59602;52.142;5.408;2022-09-12T11:23:39;6.68;;;3.95;;
71763;SDS011;59602;52.142;5.408;2022-09-12T11:39:44;7.68;;;4.22;;
71763;SDS011;59602;52.142;5.408;2022-09-12T11:49:52;4.40;;;3.20;;
71763;SDS011;59602;52.142;5.408;2022-09-12T11:52:33;4.32;;;2.85;;
71763;SDS011;59602;52.142;5.408;2022-09-12T12:11:47;4.85;;;2.50;;
71763;SDS011;59602;52.142;5.408;2022-09-12T12:15:12;4.25;;;2.60;;
71763;SDS011;59602;52.142;5.408;2022-09-12T12:31:34;4.03;;;2.55;;
71763;SDS011;59602;52.142;5.408;2022-09-12T12:35:35;3.10;;;2.30;;
71763;SDS011;59602;52.142;5.408;2022-09-12T12:43:43;3.17;;;2.22;;
71763;SDS011;59602;52.142;5.408;2022-09-12T12:46:11;2.85;;;2.20;;
71763;SDS011;59602;52.142;5.408;2022-09-12T12:51:53;4.13;;;2.60;;
71763;SDS011;59602;52.142;5.408;2022-09-12T12:57:00;2.60;;;1.80;;
71763;SDS011;59602;52.142;5.408;2022-09-12T12:59:30;2.30;;;2.08;;
71763;SDS011;59602;52.142;5.408;2022-09-12T13:01:57;3.63;;;2.47;;
71763;SDS011;59602;52.142;5.408;2022-09-12T13:04:26;4.45;;;2.60;;
71763;SDS011;59602;52.142;5.408;2022-09-12T13:06:57;4.97;;;2.90;;
71763;SDS011;59602;52.142;5.408;2022-09-12T13:09:35;4.57;;;2.85;;
71763;SDS011;59602;52.142;5.408;2022-09-12T13:12:05;3.45;;;2.55;;
71763;SDS011;59602;52.142;5.408;2022-09-12T13:14:46;3.20;;;2.30;;
71763;SDS011;59602;52.142;5.408;2022-09-12T13:17:20;4.55;;;2.33;;
71763;SDS011;59602;52.142;5.408;2022-09-12T13:19:47;5.32;;;2.50;;
71763;SDS011;59602;52.142;5.408;2022-09-12T13:22:39;2.90;;;2.05;;
71763;SDS011;59602;52.142;5.408;2022-09-12T13:30:29;3.90;;;2.30;;
71763;SDS011;59602;52.142;5.408;2022-09-12T13:33:02;3.47;;;2.60;;
71763;SDS011;59602;52.142;5.408;2022-09-12T13:35:38;3.22;;;2.10;;
71763;SDS011;59602;52.142;5.408;2022-09-12T13:40:44;4.57;;;2.30;;
71763;SDS011;59602;52.142;5.408;2022-09-12T13:43:25;2.95;;;2.47;;
71763;SDS011;59602;52.142;5.408;2022-09-12T13:46:06;2.78;;;2.05;;
71763;SDS011;59602;52.142;5.408;2022-09-12T13:48:34;2.35;;;1.88;;
71763;SDS011;59602;52.142;5.408;2022-09-12T13:51:01;3.42;;;2.05;;
71763;SDS011;59602;52.142;5.408;2022-09-12T13:53:41;3.10;;;2.10;;
71763;SDS011;59602;52.142;5.408;2022-09-12T13:56:15;3.05;;;2.13;;
71763;SDS011;59602;52.142;5.408;2022-09-12T13:58:51;3.95;;;2.40;;
71763;SDS011;59602;52.142;5.408;2022-09-12T14:04:34;4.38;;;2.85;;
71763;SDS011;59602;52.142;5.408;2022-09-12T14:10:36;5.20;;;2.22;;
71763;SDS011;59602;52.142;5.408;2022-09-12T14:17:32;4.63;;;2.55;;
71763;SDS011;59602;52.142;5.408;2022-09-12T14:23:37;3.20;;;2.47;;
71763;SDS011;59602;52.142;5.408;2022-09-12T14:38:51;2.92;;;1.95;;
71763;SDS011;59602;52.142;5.408;2022-09-12T14:42:23;3.13;;;2.00;;
71763;SDS011;59602;52.142;5.408;2022-09-12T14:51:30;3.00;;;2.10;;
71763;SDS011;59602;52.142;5.408;2022-09-12T14:54:00;2.63;;;1.85;;
71763;SDS011;59602;52.142;5.408;2022-09-12T14:56:37;3.83;;;2.00;;
71763;SDS011;59602;52.142;5.408;2022-09-12T15:02:41;4.70;;;1.90;;
71763;SDS011;59602;52.142;5.408;2022-09-12T15:05:25;2.20;;;1.83;;
71763;SDS011;59602;52.142;5.408;2022-09-12T15:07:54;3.53;;;1.95;;
71763;SDS011;59602;52.142;5.408;2022-09-12T15:10:22;3.83;;;2.37;;
71763;SDS011;59602;52.142;5.408;2022-09-12T15:13:08;3.35;;;2.03;;
71763;SDS011;59602;52.142;5.408;2022-09-12T15:15:42;3.40;;;2.30;;
71763;SDS011;59602;52.142;5.408;2022-09-12T15:18:12;3.90;;;2.17;;
71763;SDS011;59602;52.142;5.408;2022-09-12T15:20:41;3.22;;;1.95;;
71763;SDS011;59602;52.142;5.408;2022-09-12T15:23:15;4.00;;;2.03;;
71763;SDS011;59602;52.142;5.408;2022-09-12T15:25:46;3.95;;;2.60;;
71763;SDS011;59602;52.142;5.408;2022-09-12T15:28:17;3.08;;;1.98;;
71763;SDS011;59602;52.142;5.408;2022-09-12T15:30:45;3.58;;;2.05;;
71763;SDS011;59602;52.142;5.408;2022-09-12T15:33:16;3.83;;;1.70;;
71763;SDS011;59602;52.142;5.408;2022-09-12T15:35:44;3.23;;;1.90;;
71763;SDS011;59602;52.142;5.408;2022-09-12T15:38:11;3.72;;;1.75;;
71763;SDS011;59602;52.142;5.408;2022-09-12T15:40:38;2.60;;;1.75;;
71763;SDS011;59602;52.142;5.408;2022-09-12T15:43:05;3.00;;;1.50;;
71763;SDS011;59602;52.142;5.408;2022-09-12T15:45:32;3.22;;;1.77;;
71763;SDS011;59602;52.142;5.408;2022-09-12T15:48:00;2.20;;;1.73;;
71763;SDS011;59602;52.142;5.408;2022-09-12T15:50:28;2.50;;;1.70;;
71763;SDS011;59602;52.142;5.408;2022-09-12T15:52:55;3.35;;;1.73;;
71763;SDS011;59602;52.142;5.408;2022-09-12T15:55:24;2.90;;;2.00;;
71763;SDS011;59602;52.142;5.408;2022-09-12T15:57:53;2.65;;;1.83;;
71763;SDS011;59602;52.142;5.408;2022-09-12T16:00:20;4.10;;;2.00;;
71763;SDS011;59602;52.142;5.408;2022-09-12T16:02:48;2.45;;;1.88;;
71763;SDS011;59602;52.142;5.408;2022-09-12T16:05:21;2.95;;;1.80;;
71763;SDS011;59602;52.142;5.408;2022-09-12T16:07:51;3.25;;;1.38;;
71763;SDS011;59602;52.142;5.408;2022-09-12T16:10:35;3.85;;;1.65;;
71763;SDS011;59602;52.142;5.408;2022-09-12T16:13:01;3.47;;;1.60;;
71763;SDS011;59602;52.142;5.408;2022-09-12T16:15:29;2.00;;;1.50;;
71763;SDS011;59602;52.142;5.408;2022-09-12T16:17:56;2.70;;;1.60;;
71763;SDS011;59602;52.142;5.408;2022-09-12T16:20:22;2.83;;;1.85;;
71763;SDS011;59602;52.142;5.408;2022-09-12T16:22:49;3.88;;;1.90;;
71763;SDS011;59602;52.142;5.408;2022-09-12T16:25:16;3.27;;;2.10;;
71763;SDS011;59602;52.142;5.408;2022-09-12T16:27:43;2.05;;;1.40;;
71763;SDS011;59602;52.142;5.408;2022-09-12T16:30:10;2.42;;;1.40;;
71763;SDS011;59602;52.142;5.408;2022-09-12T16:32:38;4.05;;;1.60;;
71763;SDS011;59602;52.142;5.408;2022-09-12T16:35:04;3.70;;;1.50;;
71763;SDS011;59602;52.142;5.408;2022-09-12T16:37:33;2.33;;;1.57;;
71763;SDS011;59602;52.142;5.408;2022-09-12T16:40:01;2.22;;;1.70;;
71763;SDS011;59602;52.142;5.408;2022-09-12T16:42:29;4.10;;;1.30;;
71763;SDS011;59602;52.142;5.408;2022-09-12T16:44:56;2.45;;;1.10;;
71763;SDS011;59602;52.142;5.408;2022-09-12T16:47:23;2.28;;;1.73;;
71763;SDS011;59602;52.142;5.408;2022-09-12T16:49:49;7.50;;;2.00;;
71763;SDS011;59602;52.142;5.408;2022-09-12T16:52:17;2.17;;;1.50;;
71763;SDS011;59602;52.142;5.408;2022-09-12T16:54:44;3.20;;;1.23;;
71763;SDS011;59602;52.142;5.408;2022-09-12T16:57:12;2.47;;;1.35;;
71763;SDS011;59602;52.142;5.408;2022-09-12T16:59:38;3.03;;;1.27;;
71763;SDS011;59602;52.142;5.408;2022-09-12T17:02:05;1.90;;;1.10;;
71763;SDS011;59602;52.142;5.408;2022-09-12T17:04:32;4.18;;;1.40;;
71763;SDS011;59602;52.142;5.408;2022-09-12T17:06:59;2.25;;;1.30;;
71763;SDS011;59602;52.142;5.408;2022-09-12T17:09:25;2.45;;;1.25;;
71763;SDS011;59602;52.142;5.408;2022-09-12T17:11:53;2.40;;;1.20;;
71763;SDS011;59602;52.142;5.408;2022-09-12T17:14:21;1.80;;;1.50;;
71763;SDS011;59602;52.142;5.408;2022-09-12T17:16:48;2.70;;;1.35;;
71763;SDS011;59602;52.142;5.408;2022-09-12T17:19:18;3.08;;;1.48;;
71763;SDS011;59602;52.142;5.408;2022-09-12T17:29:39;3.00;;;1.40;;
71763;SDS011;59602;52.142;5.408;2022-09-12T17:36:00;3.83;;;1.50;;
71763;SDS011;59602;52.142;5.408;2022-09-12T17:38:31;3.28;;;1.75;;
71763;SDS011;59602;52.142;5.408;2022-09-12T17:41:03;2.45;;;1.50;;
71763;SDS011;59602;52.142;5.408;2022-09-12T17:43:50;4.13;;;1.53;;
71763;SDS011;59602;52.142;5.408;2022-09-12T17:46:40;4.18;;;1.70;;
71763;SDS011;59602;52.142;5.408;2022-09-12T17:49:10;3.30;;;1.65;;
71763;SDS011;59602;52.142;5.408;2022-09-12T17:51:42;4.30;;;1.58;;
71763;SDS011;59602;52.142;5.408;2022-09-12T17:54:12;6.15;;;1.70;;
71763;SDS011;59602;52.142;5.408;2022-09-12T17:56:41;2.70;;;1.70;;
71763;SDS011;59602;52.142;5.408;2022-09-12T17:59:11;4.65;;;1.55;;
71763;SDS011;59602;52.142;5.408;2022-09-12T18:01:56;3.20;;;1.48;;
71763;SDS011;59602;52.142;5.408;2022-09-12T18:04:44;2.75;;;1.70;;
71763;SDS011;59602;52.142;5.408;2022-09-12T18:07:12;2.80;;;1.40;;
71763;SDS011;59602;52.142;5.408;2022-09-12T18:09:43;3.17;;;1.60;;
71763;SDS011;59602;52.142;5.408;2022-09-12T18:12:13;4.57;;;1.60;;
71763;SDS011;59602;52.142;5.408;2022-09-12T18:14:40;2.60;;;1.63;;
71763;SDS011;59602;52.142;5.408;2022-09-12T18:17:08;6.10;;;1.67;;
71763;SDS011;59602;52.142;5.408;2022-09-12T18:20:00;2.85;;;1.52;;
71763;SDS011;59602;52.142;5.408;2022-09-12T18:23:04;4.40;;;1.53;;
71763;SDS011;59602;52.142;5.408;2022-09-12T18:25:30;2.88;;;1.70;;
71763;SDS011;59602;52.142;5.408;2022-09-12T18:27:59;2.80;;;1.83;;
71763;SDS011;59602;52.142;5.408;2022-09-12T18:30:25;2.58;;;1.52;;
71763;SDS011;59602;52.142;5.408;2022-09-12T18:33:16;2.47;;;1.60;;
71763;SDS011;59602;52.142;5.408;2022-09-12T18:35:51;2.50;;;1.63;;
71763;SDS011;59602;52.142;5.408;2022-09-12T18:38:43;3.25;;;1.50;;
71763;SDS011;59602;52.142;5.408;2022-09-12T18:41:13;3.75;;;1.50;;
71763;SDS011;59602;52.142;5.408;2022-09-12T18:44:02;3.50;;;1.63;;
71763;SDS011;59602;52.142;5.408;2022-09-12T18:46:30;4.38;;;1.70;;
71763;SDS011;59602;52.142;5.408;2022-09-12T18:49:03;2.07;;;1.40;;
71763;SDS011;59602;52.142;5.408;2022-09-12T18:51:33;3.80;;;1.63;;
71763;SDS011;59602;52.142;5.408;2022-09-12T18:54:02;3.83;;;1.60;;
71763;SDS011;59602;52.142;5.408;2022-09-12T18:56:32;3.03;;;1.30;;
71763;SDS011;59602;52.142;5.408;2022-09-12T18:59:03;3.38;;;1.70;;
71763;SDS011;59602;52.142;5.408;2022-09-12T19:01:32;3.20;;;1.50;;
71763;SDS011;59602;52.142;5.408;2022-09-12T19:04:00;3.28;;;1.77;;
71763;SDS011;59602;52.142;5.408;2022-09-12T19:06:31;2.97;;;1.88;;
71763;SDS011;59602;52.142;5.408;2022-09-12T19:09:00;3.70;;;1.52;;
71763;SDS011;59602;52.142;5.408;2022-09-12T19:11:33;5.50;;;1.92;;
71763;SDS011;59602;52.142;5.408;2022-09-12T19:14:01;4.03;;;2.30;;
71763;SDS011;59602;52.142;5.408;2022-09-12T19:16:28;3.08;;;2.03;;
71763;SDS011;59602;52.142;5.408;2022-09-12T19:18:55;3.00;;;1.98;;
71763;SDS011;59602;52.142;5.408;2022-09-12T19:21:23;3.33;;;1.80;;
71763;SDS011;59602;52.142;5.408;2022-09-12T19:23:54;3.05;;;2.13;;
71763;SDS011;59602;52.142;5.408;2022-09-12T19:26:22;2.53;;;1.90;;